Terminal Aerodrome Forecast
Issued by NWS

Home | Current Version | Previous Version | Text Only | Print | Product List | Glossary On
Versions: 1 2 3 4 5 6 7 8 9 10 11 12 13
000
FTAK31 PAFA 210520
TAFABT
TAF
PABT 210520Z 2106/2206 05006KT P6SM FEW250
     FM210800 35005KT P6SM SKC
     FM212200 05006KT P6SM FEW050 SCT200
     FM220500 02004KT P6SM FEW200=

USA.gov is the U.S. government's official web portal to all federal, state and local government web resources and services.